Time;durP1;ratioP1;P1;durP2;ratioP2;P2;SDS_P1;SDS_P2;PMS_P1;PMS_P2;Temp;Humidity;BMP_temperature;BMP_pressure;BME280_temperature;BME280_humidity;BME280_pressure;Samples;Min_cycle;Max_cycle;Signal;HPM_P1;HPM_P2
2022/04/07 00:02:17;;;;;;;4.22;2.80;;;;;;;;;;5050926;28;20033;-63
2022/04/07 00:04:42;;;;;;;4.82;2.88;;;;;;;;;;5051913;28;20067;-66
2022/04/07 00:07:07;;;;;;;5.68;2.80;;;;;;;;;;5051066;28;20029;-63
2022/04/07 00:09:33;;;;;;;6.93;2.50;;;;;;;;;;5051828;28;20136;-63
2022/04/07 00:11:58;;;;;;;6.80;2.63;;;;;;;;;;5050950;28;20032;-63
2022/04/07 00:14:24;;;;;;;5.63;2.25;;;;;;;;;;5050148;28;20029;-64
2022/04/07 00:16:49;;;;;;;4.88;2.85;;;;;;;;;;5050706;28;20027;-64
2022/04/07 00:19:15;;;;;;;5.22;2.75;;;;;;;;;;5051090;28;20045;-64
2022/04/07 00:21:46;;;;;;;6.13;2.60;;;;;;;;;;5051225;28;20052;-65
2022/04/07 00:24:12;;;;;;;;;;;;;;;;;;5051432;28;20070;-65
2022/04/07 00:26:37;;;;;;;6.00;2.60;;;;;;;;;;5051578;28;19908;-65
2022/04/07 00:29:03;;;;;;;3.88;2.40;;;;;;;;;;5050835;28;20025;-65
2022/04/07 00:31:38;;;;;;;3.30;1.95;;;;;;;;;;5051672;28;20079;-66
2022/04/07 00:34:03;;;;;;;5.05;2.45;;;;;;;;;;5050964;28;20040;-65
2022/04/07 00:36:29;;;;;;;5.70;2.20;;;;;;;;;;5051567;28;20029;-65
2022/04/07 00:38:54;;;;;;;4.05;2.10;;;;;;;;;;5051436;28;20029;-65
2022/04/07 00:41:19;;;;;;;6.70;2.92;;;;;;;;;;5050910;28;20104;-65
2022/04/07 00:43:49;;;;;;;3.78;2.50;;;;;;;;;;5050156;28;20025;-65
2022/04/07 00:46:14;;;;;;;3.63;2.10;;;;;;;;;;5050918;28;20170;-65
2022/04/07 00:48:40;;;;;;;4.15;2.00;;;;;;;;;;5050161;28;20475;-65
2022/04/07 00:51:05;;;;;;;5.07;2.90;;;;;;;;;;5049467;28;20039;-65
2022/04/07 00:53:31;;;;;;;3.05;1.95;;;;;;;;;;5049877;28;20037;-65
2022/04/07 00:56:00;;;;;;;2.13;1.70;;;;;;;;;;5050106;28;20029;-65
2022/04/07 00:58:28;;;;;;;4.97;2.10;;;;;;;;;;5053191;28;20107;-65
2022/04/07 01:00:54;;;;;;;2.95;1.85;;;;;;;;;;5054846;28;20040;-65
2022/04/07 01:03:19;;;;;;;3.35;1.90;;;;;;;;;;5054225;28;20029;-65
2022/04/07 01:05:44;;;;;;;3.97;2.20;;;;;;;;;;5053507;28;20028;-65
2022/04/07 01:08:10;;;;;;;2.15;1.55;;;;;;;;;;5052953;28;20029;-65
2022/04/07 01:10:37;;;;;;;3.58;1.70;;;;;;;;;;5054318;28;20162;-65
2022/04/07 01:13:03;;;;;;;4.03;1.92;;;;;;;;;;5054064;28;20033;-65
2022/04/07 01:15:28;;;;;;;2.63;1.70;;;;;;;;;;5054361;28;20036;-65
2022/04/07 01:17:55;;;;;;;2.50;1.80;;;;;;;;;;5054503;28;20025;-65
2022/04/07 01:20:21;;;;;;;2.75;1.52;;;;;;;;;;5053660;28;20394;-65
2022/04/07 01:22:48;;;;;;;4.10;1.98;;;;;;;;;;5054395;28;20021;-65
2022/04/07 01:25:13;;;;;;;3.90;1.98;;;;;;;;;;5053740;28;20040;-65
2022/04/07 01:27:39;;;;;;;2.20;1.42;;;;;;;;;;5053172;28;20054;-65
2022/04/07 01:30:08;;;;;;;3.28;1.58;;;;;;;;;;5053642;28;20381;-65
2022/04/07 01:32:45;;;;;;;1.92;1.42;;;;;;;;;;5054290;28;20029;-65
2022/04/07 01:35:12;;;;;;;2.95;1.65;;;;;;;;;;5053720;28;20108;-65
2022/04/07 01:37:40;;;;;;;2.45;1.60;;;;;;;;;;5053321;28;20025;-65
2022/04/07 01:40:08;;;;;;;1.98;1.60;;;;;;;;;;5053189;28;20049;-65
2022/04/07 01:42:36;;;;;;;3.47;1.73;;;;;;;;;;5054059;28;20112;-65
2022/04/07 01:45:04;;;;;;;3.97;1.70;;;;;;;;;;5051982;28;20108;-65
2022/04/07 01:47:31;;;;;;;2.53;1.90;;;;;;;;;;5052747;28;20359;-64
2022/04/07 01:50:04;;;;;;;3.50;1.52;;;;;;;;;;5053902;28;20036;-65
2022/04/07 01:52:30;;;;;;;7.03;1.77;;;;;;;;;;5053995;28;20025;-65
2022/04/07 01:54:58;;;;;;;3.65;1.65;;;;;;;;;;5052786;28;20075;-64
2022/04/07 01:57:24;;;;;;;3.40;1.60;;;;;;;;;;5033467;28;20112;-65
2022/04/07 01:59:53;;;;;;;3.50;1.40;;;;;;;;;;5033657;28;20439;-65
2022/04/07 02:02:21;;;;;;;3.72;1.50;;;;;;;;;;5033547;28;20557;-65
2022/04/07 02:05:00;;;;;;;3.65;1.48;;;;;;;;;;5033995;28;20041;-65
2022/04/07 02:07:30;;;;;;;1.63;1.10;;;;;;;;;;5033421;28;20040;-65
2022/04/07 02:09:56;;;;;;;2.50;1.40;;;;;;;;;;5033261;28;20029;-64
2022/04/07 02:12:21;;;;;;;3.88;1.50;;;;;;;;;;5033057;28;20036;-65
2022/04/07 02:14:48;;;;;;;5.28;2.00;;;;;;;;;;5033664;28;20416;-65
2022/04/07 02:17:20;;;;;;;3.08;1.60;;;;;;;;;;5032979;28;20025;-65
2022/04/07 02:19:48;;;;;;;2.13;1.25;;;;;;;;;;5033319;28;20121;-64
2022/04/07 02:22:13;;;;;;;4.53;1.50;;;;;;;;;;5032785;28;20033;-65
2022/04/07 02:24:40;;;;;;;3.72;1.70;;;;;;;;;;5032180;28;20029;-64
2022/04/07 02:27:07;;;;;;;2.60;1.42;;;;;;;;;;5032748;28;20112;-65
2022/04/07 02:29:32;;;;;;;3.28;1.48;;;;;;;;;;5033161;28;20506;-65
2022/04/07 02:31:57;;;;;;;3.10;1.20;;;;;;;;;;5033316;28;20116;-65
2022/04/07 02:34:23;;;;;;;2.40;1.77;;;;;;;;;;5032558;28;20036;-65
2022/04/07 02:36:48;;;;;;;4.57;1.35;;;;;;;;;;5032891;28;20061;-65
2022/04/07 02:39:13;;;;;;;3.00;1.20;;;;;;;;;;5032403;28;20451;-65
2022/04/07 02:41:39;;;;;;;2.45;1.50;;;;;;;;;;5033036;28;20116;-65
2022/04/07 02:44:05;;;;;;;4.68;1.80;;;;;;;;;;5031773;28;20498;-65
2022/04/07 02:46:30;;;;;;;2.67;1.40;;;;;;;;;;5033273;28;20079;-65
2022/04/07 02:48:55;;;;;;;2.20;1.55;;;;;;;;;;5032839;28;20030;-64
2022/04/07 02:51:21;;;;;;;2.95;1.50;;;;;;;;;;5030908;28;20040;-64
2022/04/07 02:53:46;;;;;;;4.32;1.70;;;;;;;;;;5032900;28;20371;-64
2022/04/07 02:56:12;;;;;;;2.63;1.70;;;;;;;;;;5032199;28;20357;-64
2022/04/07 02:58:37;;;;;;;2.80;1.70;;;;;;;;;;5032758;28;20371;-63
2022/04/07 03:01:03;;;;;;;2.85;1.77;;;;;;;;;;5032384;28;20030;-62
2022/04/07 03:03:28;;;;;;;3.03;1.70;;;;;;;;;;5032009;28;20028;-63
2022/04/07 03:05:54;;;;;;;4.68;1.83;;;;;;;;;;5031424;28;20033;-62
2022/04/07 03:08:19;;;;;;;4.45;2.20;;;;;;;;;;5030468;28;20033;-63
2022/04/07 03:10:44;;;;;;;3.67;1.90;;;;;;;;;;5031729;28;20021;-63
2022/04/07 03:13:10;;;;;;;7.63;3.50;;;;;;;;;;5031741;28;20517;-64
2022/04/07 03:15:35;;;;;;;5.80;2.20;;;;;;;;;;5032512;28;20109;-63
2022/04/07 03:18:01;;;;;;;5.65;1.77;;;;;;;;;;5032469;28;20356;-63
2022/04/07 03:20:26;;;;;;;5.90;3.05;;;;;;;;;;5031267;28;20350;-64
2022/04/07 03:22:51;;;;;;;2.45;1.85;;;;;;;;;;5032364;28;20060;-63
2022/04/07 03:25:17;;;;;;;5.05;1.85;;;;;;;;;;5031686;28;20029;-63
2022/04/07 03:27:42;;;;;;;9.02;2.08;;;;;;;;;;5032336;28;20423;-64
2022/04/07 03:30:08;;;;;;;4.38;1.83;;;;;;;;;;5031713;28;20033;-65
2022/04/07 03:32:33;;;;;;;3.65;1.77;;;;;;;;;;5031920;28;20367;-63
2022/04/07 03:34:59;;;;;;;6.68;2.22;;;;;;;;;;5032008;28;20025;-64
2022/04/07 03:37:24;;;;;;;4.90;1.80;;;;;;;;;;5031604;28;20034;-63
2022/04/07 03:39:50;;;;;;;3.17;1.65;;;;;;;;;;5032009;28;20478;-63
2022/04/07 03:42:16;;;;;;;3.80;1.38;;;;;;;;;;5031335;28;20030;-63
2022/04/07 03:44:41;;;;;;;2.08;1.30;;;;;;;;;;5032320;28;20641;-63
2022/04/07 03:47:06;;;;;;;3.08;1.50;;;;;;;;;;5032029;28;20049;-63
2022/04/07 03:49:32;;;;;;;3.75;1.33;;;;;;;;;;5031288;28;20102;-63
2022/04/07 03:51:57;;;;;;;4.80;1.52;;;;;;;;;;5032103;28;20112;-63
2022/04/07 03:54:23;;;;;;;1.73;1.27;;;;;;;;;;5031071;28;20312;-64
2022/04/07 03:56:48;;;;;;;3.58;1.50;;;;;;;;;;5031702;28;20030;-64
2022/04/07 03:59:14;;;;;;;2.10;1.42;;;;;;;;;;5029918;28;20025;-64
2022/04/07 04:01:40;;;;;;;2.88;1.48;;;;;;;;;;5032239;28;20034;-64
2022/04/07 04:04:06;;;;;;;2.33;1.40;;;;;;;;;;5031955;28;20029;-65
2022/04/07 04:06:33;;;;;;;2.20;1.38;;;;;;;;;;5031398;28;20429;-65
2022/04/07 04:08:58;;;;;;;2.42;1.42;;;;;;;;;;5031807;28;20030;-65
2022/04/07 04:11:23;;;;;;;3.13;1.40;;;;;;;;;;5031123;28;20083;-65
2022/04/07 04:13:49;;;;;;;2.70;1.10;;;;;;;;;;5031652;28;20061;-65
2022/04/07 04:16:17;;;;;;;2.53;1.42;;;;;;;;;;5031348;28;20034;-65
2022/04/07 04:18:43;;;;;;;3.38;1.63;;;;;;;;;;5032060;28;20029;-65
2022/04/07 04:21:09;;;;;;;7.20;1.50;;;;;;;;;;5031411;28;20140;-65
2022/04/07 04:23:35;;;;;;;3.03;1.40;;;;;;;;;;5030039;28;20113;-65
2022/04/07 04:26:01;;;;;;;2.45;0.98;;;;;;;;;;5031806;28;20032;-65
2022/04/07 04:28:27;;;;;;;3.20;1.30;;;;;;;;;;5030947;28;20032;-65
2022/04/07 04:30:52;;;;;;;1.13;0.98;;;;;;;;;;5031379;28;20029;-65
2022/04/07 04:33:17;;;;;;;4.15;1.08;;;;;;;;;;5034930;28;20379;-64
2022/04/07 04:35:44;;;;;;;5.10;1.35;;;;;;;;;;5035467;28;20112;-65
2022/04/07 04:38:09;;;;;;;2.20;1.10;;;;;;;;;;5035342;28;20044;-65
2022/04/07 04:40:35;;;;;;;4.32;1.55;;;;;;;;;;5034453;28;20025;-65
2022/04/07 04:43:00;;;;;;;2.38;1.10;;;;;;;;;;5035360;28;20029;-65
2022/04/07 04:45:26;;;;;;;3.15;1.40;;;;;;;;;;5034720;28;20095;-65
2022/04/07 04:47:52;;;;;;;3.60;0.90;;;;;;;;;;5035004;28;20441;-64
2022/04/07 04:50:18;;;;;;;3.45;1.30;;;;;;;;;;5033430;28;20039;-65
2022/04/07 04:52:44;;;;;;;1.27;0.95;;;;;;;;;;5034144;28;20120;-65
2022/04/07 04:55:09;;;;;;;2.55;1.17;;;;;;;;;;5035419;28;20546;-65
2022/04/07 04:57:35;;;;;;;4.57;1.55;;;;;;;;;;5034610;28;20029;-65
2022/04/07 05:00:00;;;;;;;3.95;1.40;;;;;;;;;;5035143;28;20033;-65
2022/04/07 05:02:26;;;;;;;5.18;1.73;;;;;;;;;;5034440;28;20064;-65
2022/04/07 05:04:51;;;;;;;4.85;1.40;;;;;;;;;;5034851;28;20061;-63
2022/04/07 05:07:17;;;;;;;4.00;1.67;;;;;;;;;;5033244;28;20029;-64
2022/04/07 05:09:42;;;;;;;2.78;1.40;;;;;;;;;;5034735;28;20163;-65
2022/04/07 05:12:08;;;;;;;6.15;2.03;;;;;;;;;;5034901;28;20041;-65
2022/04/07 05:14:33;;;;;;;5.45;1.77;;;;;;;;;;5034153;28;20044;-65
2022/04/07 05:16:58;;;;;;;4.00;1.95;;;;;;;;;;5034520;28;20037;-66
2022/04/07 05:19:24;;;;;;;3.97;1.80;;;;;;;;;;5033411;28;20040;-65
2022/04/07 05:21:50;;;;;;;3.67;2.00;;;;;;;;;;5034755;28;20033;-66
2022/04/07 05:24:18;;;;;;;5.70;2.08;;;;;;;;;;5033907;28;20029;-66
2022/04/07 05:26:44;;;;;;;3.92;1.80;;;;;;;;;;5034336;28;20072;-66
2022/04/07 05:29:10;;;;;;;3.55;1.98;;;;;;;;;;5034741;28;20378;-66
2022/04/07 05:31:36;;;;;;;3.80;2.00;;;;;;;;;;5033448;28;20034;-65
2022/04/07 05:34:02;;;;;;;5.15;2.25;;;;;;;;;;5034188;28;20510;-65
2022/04/07 05:36:27;;;;;;;3.95;2.28;;;;;;;;;;5034131;28;20033;-66
2022/04/07 05:38:53;;;;;;;3.38;2.13;;;;;;;;;;5034376;28;20029;-65
2022/04/07 05:41:19;;;;;;;4.30;2.50;;;;;;;;;;5033368;28;20036;-66
2022/04/07 05:43:44;;;;;;;5.07;2.50;;;;;;;;;;5033393;28;20026;-65
2022/04/07 05:46:09;;;;;;;5.07;2.47;;;;;;;;;;5034437;28;20029;-65
2022/04/07 05:48:35;;;;;;;5.13;2.42;;;;;;;;;;5033799;28;20502;-65
2022/04/07 05:51:00;;;;;;;4.68;2.97;;;;;;;;;;5033643;28;20057;-67
2022/04/07 05:53:26;;;;;;;5.30;2.47;;;;;;;;;;5033542;28;20034;-66
2022/04/07 05:55:51;;;;;;;3.83;2.38;;;;;;;;;;5034094;28;20040;-65
2022/04/07 05:58:16;;;;;;;4.57;2.30;;;;;;;;;;5033802;28;20041;-67
2022/04/07 06:00:42;;;;;;;3.28;1.95;;;;;;;;;;5033905;28;20037;-66
2022/04/07 06:03:07;;;;;;;3.08;2.08;;;;;;;;;;5033529;28;20037;-65
2022/04/07 06:05:35;;;;;;;3.85;1.80;;;;;;;;;;5032972;28;20065;-65
2022/04/07 06:08:01;;;;;;;2.42;1.65;;;;;;;;;;5032600;28;20467;-65
2022/04/07 06:10:28;;;;;;;3.40;1.90;;;;;;;;;;5032691;28;20060;-65
2022/04/07 06:12:53;;;;;;;2.60;1.67;;;;;;;;;;5032134;28;20033;-65
2022/04/07 06:15:19;;;;;;;2.58;1.40;;;;;;;;;;5031878;28;20463;-65
2022/04/07 06:17:44;;;;;;;3.08;1.45;;;;;;;;;;5033569;28;20455;-66
2022/04/07 06:20:11;;;;;;;1.77;1.30;;;;;;;;;;5032043;28;20041;-66
2022/04/07 06:22:40;;;;;;;1.85;1.20;;;;;;;;;;5032478;28;20435;-67
2022/04/07 06:25:07;;;;;;;2.30;1.63;;;;;;;;;;5033279;28;20379;-67
2022/04/07 06:27:34;;;;;;;1.73;1.17;;;;;;;;;;5032885;28;20029;-66
2022/04/07 06:29:59;;;;;;;2.53;1.38;;;;;;;;;;5031956;28;20061;-66
2022/04/07 06:32:25;;;;;;;1.67;0.93;;;;;;;;;;5032852;28;20061;-66
2022/04/07 06:34:50;;;;;;;3.20;1.23;;;;;;;;;;5032111;28;20026;-65
2022/04/07 06:37:15;;;;;;;2.08;1.30;;;;;;;;;;5033255;28;20036;-66
2022/04/07 06:39:41;;;;;;;2.08;0.95;;;;;;;;;;5032133;28;20091;-66
2022/04/07 06:42:07;;;;;;;2.03;1.08;;;;;;;;;;5033097;28;20022;-66
2022/04/07 06:44:32;;;;;;;1.60;1.10;;;;;;;;;;5030900;28;20037;-66
2022/04/07 06:46:57;;;;;;;1.58;1.10;;;;;;;;;;5033030;28;20025;-65
2022/04/07 06:49:23;;;;;;;2.15;1.08;;;;;;;;;;5032123;28;20061;-65
2022/04/07 06:51:48;;;;;;;2.97;1.27;;;;;;;;;;5032834;28;20529;-66
2022/04/07 06:54:13;;;;;;;2.00;1.48;;;;;;;;;;5032610;28;20037;-68
2022/04/07 06:56:39;;;;;;;2.60;1.20;;;;;;;;;;5032116;28;20227;-66
2022/04/07 06:59:05;;;;;;;1.83;1.10;;;;;;;;;;5033106;28;20028;-68
2022/04/07 07:01:30;;;;;;;1.20;1.10;;;;;;;;;;5030969;28;20029;-67
2022/04/07 07:03:56;;;;;;;1.85;1.00;;;;;;;;;;5032425;28;20029;-68
2022/04/07 07:06:21;;;;;;;1.10;0.98;;;;;;;;;;5032091;28;20078;-67
2022/04/07 07:08:47;;;;;;;1.55;0.80;;;;;;;;;;5031307;28;20470;-68
2022/04/07 07:11:12;;;;;;;0.85;0.77;;;;;;;;;;5032211;28;20082;-66
2022/04/07 07:13:37;;;;;;;0.90;0.90;;;;;;;;;;5031853;28;20029;-65
2022/04/07 07:16:03;;;;;;;3.45;0.85;;;;;;;;;;5032546;28;20451;-67
2022/04/07 07:18:29;;;;;;;2.35;1.20;;;;;;;;;;5031942;28;20037;-66
2022/04/07 07:20:54;;;;;;;2.63;1.40;;;;;;;;;;5032309;28;20064;-66
2022/04/07 07:23:20;;;;;;;2.33;1.10;;;;;;;;;;5031189;28;20025;-65
2022/04/07 07:25:47;;;;;;;1.90;1.30;;;;;;;;;;5032040;28;20049;-64
2022/04/07 07:28:12;;;;;;;2.45;1.58;;;;;;;;;;5032318;28;20040;-65
2022/04/07 07:30:38;;;;;;;2.58;1.80;;;;;;;;;;5031935;28;20035;-64
2022/04/07 07:33:03;;;;;;;5.38;1.60;;;;;;;;;;5032308;28;20044;-64
2022/04/07 07:35:29;;;;;;;5.28;2.22;;;;;;;;;;5031601;28;20109;-65
2022/04/07 07:38:01;;;;;;;3.17;1.45;;;;;;;;;;5032322;28;20332;-65
2022/04/07 07:40:32;;;;;;;2.80;1.73;;;;;;;;;;5031480;28;20104;-65
2022/04/07 07:43:00;;;;;;;2.35;1.42;;;;;;;;;;5032113;28;20026;-64
2022/04/07 07:45:26;;;;;;;3.00;1.70;;;;;;;;;;5030375;28;20403;-64
2022/04/07 07:47:53;;;;;;;3.13;1.42;;;;;;;;;;5031857;28;20030;-65
2022/04/07 07:50:19;;;;;;;5.25;2.30;;;;;;;;;;5032243;28;20397;-64
2022/04/07 07:52:45;;;;;;;4.03;1.80;;;;;;;;;;5031395;28;20033;-65
2022/04/07 07:55:11;;;;;;;5.40;2.30;;;;;;;;;;5032054;28;20029;-65
2022/04/07 07:57:36;;;;;;;2.58;1.50;;;;;;;;;;5031380;28;20036;-65
2022/04/07 08:00:04;;;;;;;2.83;1.50;;;;;;;;;;5030697;28;20463;-65
2022/04/07 08:02:31;;;;;;;3.65;1.63;;;;;;;;;;5031300;28;20092;-65
2022/04/07 08:04:56;;;;;;;2.42;1.55;;;;;;;;;;5032119;28;20034;-65
2022/04/07 08:07:23;;;;;;;3.22;1.77;;;;;;;;;;5034051;28;20041;-65
2022/04/07 08:09:48;;;;;;;3.70;1.70;;;;;;;;;;5035069;28;20474;-65
2022/04/07 08:12:14;;;;;;;4.57;2.13;;;;;;;;;;5035521;28;20040;-65
2022/04/07 08:14:39;;;;;;;3.67;1.70;;;;;;;;;;5035059;28;20029;-65
2022/04/07 08:17:05;;;;;;;3.53;1.83;;;;;;;;;;5035723;28;20383;-64
2022/04/07 08:19:30;;;;;;;6.75;1.80;;;;;;;;;;5035007;28;20033;-66
2022/04/07 08:21:55;;;;;;;2.50;1.73;;;;;;;;;;5035491;28;20060;-64
2022/04/07 08:24:22;;;;;;;2.60;1.80;;;;;;;;;;5035637;28;20100;-67
2022/04/07 08:26:48;;;;;;;2.88;1.70;;;;;;;;;;5035077;28;20038;-66
2022/04/07 08:29:13;;;;;;;8.27;2.10;;;;;;;;;;5035812;28;20056;-65
2022/04/07 08:31:39;;;;;;;2.55;1.52;;;;;;;;;;5035072;28;20467;-65
2022/04/07 08:34:05;;;;;;;1.98;1.63;;;;;;;;;;5035599;28;20033;-65
2022/04/07 08:36:30;;;;;;;1.88;1.45;;;;;;;;;;5033609;28;20021;-66
2022/04/07 08:38:57;;;;;;;2.45;1.80;;;;;;;;;;5034002;28;20528;-65
2022/04/07 08:41:23;;;;;;;5.00;1.50;;;;;;;;;;5035367;28;20033;-66
2022/04/07 08:43:49;;;;;;;3.72;2.30;;;;;;;;;;5033432;28;20032;-66
2022/04/07 08:46:14;;;;;;;1.35;1.25;;;;;;;;;;5035337;28;20033;-65
2022/04/07 08:48:42;;;;;;;2.58;1.30;;;;;;;;;;5034467;28;20034;-65
2022/04/07 08:51:08;;;;;;;1.40;1.30;;;;;;;;;;5035102;28;20083;-65
2022/04/07 08:53:34;;;;;;;1.08;1.00;;;;;;;;;;5033303;28;20038;-64
2022/04/07 08:56:04;;;;;;;2.25;1.30;;;;;;;;;;5035189;28;20029;-64
2022/04/07 08:58:30;;;;;;;1.60;1.20;;;;;;;;;;5034503;28;20029;-65
2022/04/07 09:00:55;;;;;;;2.65;1.60;;;;;;;;;;5035038;28;20029;-64
2022/04/07 09:03:21;;;;;;;2.55;1.42;;;;;;;;;;5034967;28;20112;-64
2022/04/07 09:05:54;;;;;;;2.05;1.30;;;;;;;;;;5033090;28;20263;-65
2022/04/07 09:08:19;;;;;;;1.95;1.30;;;;;;;;;;5035071;28;20033;-65
2022/04/07 09:10:56;;;;;;;1.33;1.10;;;;;;;;;;5033901;28;20032;-64
2022/04/07 09:13:22;;;;;;;0.90;0.90;;;;;;;;;;5035004;28;20117;-63
2022/04/07 09:15:48;;;;;;;1.40;1.05;;;;;;;;;;5034610;28;20302;-63
2022/04/07 09:18:22;;;;;;;1.50;1.20;;;;;;;;;;5033520;28;20116;-63
2022/04/07 09:20:47;;;;;;;0.98;0.70;;;;;;;;;;5034076;28;20092;-64
2022/04/07 09:23:13;;;;;;;5.50;0.60;;;;;;;;;;5034727;28;20452;-64
2022/04/07 09:25:43;;;;;;;0.60;0.55;;;;;;;;;;5034032;28;20029;-64
2022/04/07 09:28:11;;;;;;;0.85;0.65;;;;;;;;;;5034803;28;20025;-65
2022/04/07 09:30:41;;;;;;;2.58;0.93;;;;;;;;;;5016347;28;20037;-66
2022/04/07 09:33:19;;;;;;;1.00;0.80;;;;;;;;;;5034743;28;20136;-66
2022/04/07 09:36:12;;;;;;;1.88;0.88;;;;;;;;;;5034029;28;20029;-66
2022/04/07 09:38:38;;;;;;;1.45;0.90;;;;;;;;;;5032658;28;20075;-65
2022/04/07 09:41:11;;;;;;;3.75;1.00;;;;;;;;;;5033028;28;20112;-66
2022/04/07 09:44:00;;;;;;;2.47;1.10;;;;;;;;;;5032503;28;20040;-66
2022/04/07 09:46:34;;;;;;;4.00;1.20;;;;;;;;;;5034007;28;20033;-67
2022/04/07 09:49:07;;;;;;;2.60;1.00;;;;;;;;;;5033197;28;20029;-67
2022/04/07 09:51:40;;;;;;;1.48;1.20;;;;;;;;;;5033646;28;20037;-67
2022/04/07 09:54:09;;;;;;;3.17;1.38;;;;;;;;;;5034187;28;20029;-66
2022/04/07 09:56:35;;;;;;;2.90;1.75;;;;;;;;;;5033492;28;20047;-66
2022/04/07 09:59:01;;;;;;;3.15;1.80;;;;;;;;;;5034223;28;20033;-66
2022/04/07 10:01:27;;;;;;;2.45;1.40;;;;;;;;;;5033954;28;20051;-65
2022/04/07 10:03:53;;;;;;;2.90;1.60;;;;;;;;;;5033027;28;20398;-66
2022/04/07 10:06:19;;;;;;;1.63;1.30;;;;;;;;;;5032760;28;20063;-66
2022/04/07 10:08:48;;;;;;;3.50;1.40;;;;;;;;;;5033323;28;20025;-66
2022/04/07 10:11:16;;;;;;;2.80;1.60;;;;;;;;;;5032726;28;20493;-67
2022/04/07 10:13:43;;;;;;;4.30;1.80;;;;;;;;;;5033294;28;20032;-67
2022/04/07 10:16:10;;;;;;;5.03;1.88;;;;;;;;;;5033953;28;20029;-67
2022/04/07 10:18:45;;;;;;;4.20;1.88;;;;;;;;;;5033410;28;20040;-67
2022/04/07 10:21:43;;;;;;;7.15;2.00;;;;;;;;;;5033768;28;20045;-68
2022/04/07 10:24:46;;;;;;;1.50;1.40;;;;;;;;;;5034611;28;20033;-67
2022/04/07 10:27:14;;;;;;;2.63;1.92;;;;;;;;;;5034463;28;20038;-67
2022/04/07 10:29:40;;;;;;;4.15;1.95;;;;;;;;;;5033670;28;20029;-68
2022/04/07 10:32:11;;;;;;;2.33;1.38;;;;;;;;;;5036091;28;20042;-66
2022/04/07 10:34:52;;;;;;;3.45;2.20;;;;;;;;;;5034869;28;20026;-67
2022/04/07 10:37:29;;;;;;;4.25;2.70;;;;;;;;;;5033639;28;20030;-66
2022/04/07 10:39:54;;;;;;;2.78;2.10;;;;;;;;;;5032743;28;20045;-66
2022/04/07 10:42:58;;;;;;;4.45;2.60;;;;;;;;;;5033104;28;20029;-66
2022/04/07 10:45:36;;;;;;;4.45;2.80;;;;;;;;;;5031890;28;20070;-64
2022/04/07 10:48:30;;;;;;;3.42;2.70;;;;;;;;;;5033181;28;20038;-65
2022/04/07 10:51:00;;;;;;;2.92;2.33;;;;;;;;;;5032413;28;20374;-64
2022/04/07 10:53:29;;;;;;;4.70;2.75;;;;;;;;;;5032707;28;20025;-66
2022/04/07 10:56:03;;;;;;;4.35;3.08;;;;;;;;;;5032227;28;20368;-68
2022/04/07 10:58:47;;;;;;;4.95;3.38;;;;;;;;;;5031242;28;20364;-69
2022/04/07 11:01:33;;;;;;;5.97;3.03;;;;;;;;;;5032447;28;20033;-70
2022/04/07 11:04:22;;;;;;;4.70;2.97;;;;;;;;;;5029686;28;20033;-69
2022/04/07 11:07:15;;;;;;;3.55;2.55;;;;;;;;;;5031914;28;20033;-70
2022/04/07 11:09:59;;;;;;;3.95;2.17;;;;;;;;;;5030842;28;20100;-70
2022/04/07 11:12:31;;;;;;;3.83;2.40;;;;;;;;;;5032065;28;20091;-70
2022/04/07 11:15:03;;;;;;;3.58;2.35;;;;;;;;;;5031993;28;20049;-70
2022/04/07 11:17:52;;;;;;;3.45;2.30;;;;;;;;;;5032807;28;20034;-69
2022/04/07 11:20:27;;;;;;;3.60;2.35;;;;;;;;;;5032533;28;20586;-71
2022/04/07 11:23:10;;;;;;;3.08;2.22;;;;;;;;;;5030361;28;20112;-70
2022/04/07 11:25:37;;;;;;;2.80;2.17;;;;;;;;;;5031587;28;20032;-72
2022/04/07 11:28:10;;;;;;;3.42;2.30;;;;;;;;;;5032399;28;20033;-73
2022/04/07 11:31:04;;;;;;;4.60;2.50;;;;;;;;;;5032611;28;20037;-72
2022/04/07 11:33:37;;;;;;;3.13;2.38;;;;;;;;;;5032319;28;20437;-68
2022/04/07 11:36:07;;;;;;;3.08;2.40;;;;;;;;;;5032414;28;20034;-66
2022/04/07 11:38:48;;;;;;;4.57;2.83;;;;;;;;;;5032148;28;20037;-65
2022/04/07 11:41:17;;;;;;;;;;;;;;;;;;5032157;28;20034;-65
2022/04/07 11:43:48;;;;;;;5.88;2.95;;;;;;;;;;5031525;28;19924;-65
2022/04/07 11:46:15;;;;;;;5.88;2.70;;;;;;;;;;5032616;28;20037;-66
2022/04/07 11:48:40;;;;;;;5.25;2.95;;;;;;;;;;5031609;28;20037;-65
2022/04/07 11:51:18;;;;;;;4.60;2.58;;;;;;;;;;5031871;28;20163;-65
2022/04/07 11:53:53;;;;;;;2.95;2.40;;;;;;;;;;5031807;28;20041;-65
2022/04/07 11:56:20;;;;;;;4.82;2.55;;;;;;;;;;5032239;28;20034;-63
2022/04/07 11:58:58;;;;;;;4.93;2.50;;;;;;;;;;5031653;28;20030;-64
2022/04/07 12:01:24;;;;;;;5.68;2.60;;;;;;;;;;5031818;28;20458;-64
2022/04/07 12:03:58;;;;;;;3.55;2.40;;;;;;;;;;5031159;28;20029;-64
2022/04/07 12:06:25;;;;;;;3.00;1.52;;;;;;;;;;5032079;28;20025;-64
2022/04/07 12:08:52;;;;;;;3.88;1.77;;;;;;;;;;5030245;28;20029;-65
2022/04/07 12:11:19;;;;;;;3.70;1.90;;;;;;;;;;5032089;28;20030;-66
2022/04/07 12:13:46;;;;;;;4.80;2.10;;;;;;;;;;5031738;28;20037;-65
2022/04/07 12:16:12;;;;;;;6.53;1.60;;;;;;;;;;5032411;28;20048;-65
2022/04/07 12:18:40;;;;;;;3.15;1.30;;;;;;;;;;5032069;28;20459;-65
2022/04/07 12:21:06;;;;;;;4.88;1.45;;;;;;;;;;5031880;28;20045;-66
2022/04/07 12:23:31;;;;;;;2.78;1.17;;;;;;;;;;5031938;28;20036;-66
2022/04/07 12:26:01;;;;;;;2.78;1.10;;;;;;;;;;5030029;28;20026;-66
2022/04/07 12:28:40;;;;;;;4.80;1.33;;;;;;;;;;5031973;28;20029;-67
2022/04/07 12:31:13;;;;;;;2.78;1.50;;;;;;;;;;5031798;28;20025;-67
2022/04/07 12:33:42;;;;;;;3.95;1.80;;;;;;;;;;5031830;28;20037;-67
2022/04/07 12:36:16;;;;;;;4.18;1.23;;;;;;;;;;5031571;28;20033;-67
2022/04/07 12:39:00;;;;;;;3.00;1.20;;;;;;;;;;5030990;28;20498;-65
2022/04/07 12:41:43;;;;;;;4.68;1.58;;;;;;;;;;5030452;28;20036;-67
2022/04/07 12:44:09;;;;;;;5.38;1.50;;;;;;;;;;5031368;28;20033;-67
2022/04/07 12:46:44;;;;;;;4.85;1.40;;;;;;;;;;5031745;28;20028;-66
2022/04/07 12:49:10;;;;;;;5.95;1.55;;;;;;;;;;5032002;28;20033;-66
2022/04/07 12:51:37;;;;;;;6.43;1.60;;;;;;;;;;5031398;28;20110;-66
2022/04/07 12:54:12;;;;;;;3.50;1.45;;;;;;;;;;5032618;28;20376;-67
2022/04/07 12:56:38;;;;;;;6.18;1.33;;;;;;;;;;5035031;28;20087;-67
2022/04/07 12:59:09;;;;;;;7.07;1.70;;;;;;;;;;5034385;28;20386;-66
2022/04/07 13:01:35;;;;;;;5.82;1.98;;;;;;;;;;5034870;28;20032;-67
2022/04/07 13:04:00;;;;;;;5.97;1.70;;;;;;;;;;5034525;28;20124;-66
2022/04/07 13:06:27;;;;;;;3.58;1.35;;;;;;;;;;5033904;28;20454;-66
2022/04/07 13:08:53;;;;;;;3.13;1.05;;;;;;;;;;5033142;28;20056;-66
2022/04/07 13:11:40;;;;;;;3.97;1.35;;;;;;;;;;5034490;28;20072;-66
2022/04/07 13:14:08;;;;;;;5.70;1.30;;;;;;;;;;5034476;28;20029;-66
2022/04/07 13:16:36;;;;;;;3.17;1.30;;;;;;;;;;5034658;28;20075;-66
2022/04/07 13:19:02;;;;;;;5.47;1.45;;;;;;;;;;5033951;28;20061;-66
2022/04/07 13:21:28;;;;;;;5.38;1.40;;;;;;;;;;5034268;28;20549;-66
2022/04/07 13:23:56;;;;;;;6.03;1.75;;;;;;;;;;5016142;28;20061;-66
2022/04/07 13:26:23;;;;;;;4.05;1.25;;;;;;;;;;5034652;28;20040;-67
2022/04/07 13:28:49;;;;;;;5.43;1.27;;;;;;;;;;5033967;28;20037;-66
2022/04/07 13:31:16;;;;;;;5.45;1.48;;;;;;;;;;5034468;28;20112;-66
2022/04/07 13:33:41;;;;;;;2.50;1.20;;;;;;;;;;5034515;28;20033;-67
2022/04/07 13:36:07;;;;;;;11.15;2.17;;;;;;;;;;5033522;28;20079;-66
2022/04/07 13:38:33;;;;;;;7.13;1.98;;;;;;;;;;5034555;28;20379;-66
2022/04/07 13:41:00;;;;;;;3.30;1.17;;;;;;;;;;5034100;28;20033;-68
2022/04/07 13:43:29;;;;;;;3.47;1.45;;;;;;;;;;5032844;28;20029;-66
2022/04/07 13:45:55;;;;;;;8.02;1.95;;;;;;;;;;5033054;28;20065;-65
2022/04/07 13:48:21;;;;;;;10.43;1.70;;;;;;;;;;5034256;28;20061;-66
2022/04/07 13:50:48;;;;;;;6.80;1.67;;;;;;;;;;5032473;28;20041;-66
2022/04/07 13:53:16;;;;;;;7.45;1.67;;;;;;;;;;5034280;28;20526;-65
2022/04/07 13:55:45;;;;;;;7.00;1.50;;;;;;;;;;5034095;28;20359;-66
2022/04/07 13:58:43;;;;;;;5.15;1.40;;;;;;;;;;5033050;28;20470;-65
2022/04/07 14:01:11;;;;;;;5.53;1.50;;;;;;;;;;5028438;28;20163;-66
2022/04/07 14:03:40;;;;;;;3.35;1.25;;;;;;;;;;5033313;28;20030;-65
2022/04/07 14:06:06;;;;;;;5.20;1.33;;;;;;;;;;5033347;28;20045;-66
2022/04/07 14:08:32;;;;;;;3.80;1.13;;;;;;;;;;5033714;28;20037;-66
2022/04/07 14:10:57;;;;;;;5.47;1.58;;;;;;;;;;5033290;28;20030;-65
2022/04/07 14:13:24;;;;;;;5.65;1.45;;;;;;;;;;5033696;28;20037;-66
2022/04/07 14:15:51;;;;;;;5.45;1.20;;;;;;;;;;5033497;28;20029;-65
2022/04/07 14:18:17;;;;;;;4.85;1.55;;;;;;;;;;5032178;28;20030;-66
2022/04/07 14:20:46;;;;;;;11.90;1.63;;;;;;;;;;5033729;28;20100;-65
2022/04/07 14:23:16;;;;;;;7.18;1.50;;;;;;;;;;5032248;28;20034;-65
2022/04/07 14:25:41;;;;;;;4.15;1.10;;;;;;;;;;5033347;28;20502;-65
2022/04/07 14:28:08;;;;;;;5.20;1.50;;;;;;;;;;5031371;28;20037;-66
2022/04/07 14:30:34;;;;;;;4.07;1.30;;;;;;;;;;5032260;28;20140;-65
2022/04/07 14:33:00;;;;;;;4.13;1.55;;;;;;;;;;5031262;28;20029;-67
2022/04/07 14:35:26;;;;;;;3.45;1.40;;;;;;;;;;5033231;28;20025;-65
2022/04/07 14:37:58;;;;;;;6.13;1.45;;;;;;;;;;5032668;28;20030;-64
2022/04/07 14:40:24;;;;;;;2.80;1.65;;;;;;;;;;5033390;28;20029;-65
2022/04/07 14:42:49;;;;;;;3.80;1.60;;;;;;;;;;5032310;28;20033;-65
2022/04/07 14:45:15;;;;;;;4.53;1.30;;;;;;;;;;5032176;28;20501;-65
2022/04/07 14:47:40;;;;;;;6.18;1.50;;;;;;;;;;5033095;28;20029;-66
2022/04/07 14:50:06;;;;;;;3.15;1.17;;;;;;;;;;5032629;28;20037;-65